Terminal Aerodrome Forecast
Issued by NWS

Home | Current Version | Previous Version | Graphics & Text | Print | Product List | Glossary On
Versions: 1 2 3 4 5 6 7 8 9 10 11 12 13 14
000
FTUS45 KRIW 171741
TAFBPI
TAF
KBPI 171741Z 1718/1818 VRB06KT P6SM SCT150
     FM172100 23014G22KT P6SM BKN080
     FM180100 18007KT P6SM BKN070
     FM181000 19007KT P6SM VCSH SCT015 OVC035
     FM181200 30010G20KT 2SM -SN OVC030=

USA.gov is the U.S. government's official web portal to all federal, state and local government web resources and services.